Time;durP1;ratioP1;P1;durP2;ratioP2;P2;SDS_P1;SDS_P2;PMS_P1;PMS_P2;Temp;Humidity;BMP_temperature;BMP_pressure;BME280_temperature;BME280_humidity;BME280_pressure;Samples;Min_cycle;Max_cycle;Signal;HPM_P1;HPM_P2
2024/01/04 00:02:05;;;;;;;0.00;0.00;;;8.90;99.90;;;;;;5052116;28;20181;-67
2024/01/04 00:04:30;;;;;;;0.00;0.00;;;8.90;99.90;;;;;;5052942;28;20186;-67
2024/01/04 00:06:56;;;;;;;0.00;0.00;;;9.00;99.90;;;;;;5052293;28;20716;-66
2024/01/04 00:09:22;;;;;;;0.00;0.00;;;8.90;99.90;;;;;;5053291;28;20182;-66
2024/01/04 00:11:47;;;;;;;0.00;0.00;;;8.90;99.90;;;;;;5053204;28;20173;-66
2024/01/04 00:14:13;;;;;;;0.00;0.00;;;8.90;99.90;;;;;;5052583;28;20206;-66
2024/01/04 00:16:38;;;;;;;0.00;0.00;;;8.90;99.90;;;;;;5053421;28;20209;-65
2024/01/04 00:19:04;;;;;;;0.00;0.00;;;8.90;99.90;;;;;;5052896;28;20197;-67
2024/01/04 00:21:30;;;;;;;0.00;0.00;;;8.90;99.90;;;;;;5053424;28;20228;-66
2024/01/04 00:23:57;;;;;;;0.00;0.00;;;8.90;99.90;;;;;;5052488;28;20177;-67
2024/01/04 00:26:23;;;;;;;0.00;0.00;;;8.90;99.90;;;;;;5036265;28;20212;-66
2024/01/04 00:28:48;;;;;;;0.00;0.00;;;8.90;99.90;;;;;;5053078;28;20584;-66
2024/01/04 00:31:14;;;;;;;0.00;0.00;;;8.90;99.90;;;;;;5052772;28;20188;-67
2024/01/04 00:33:39;;;;;;;0.00;0.00;;;8.90;99.90;;;;;;5052765;28;20228;-69
2024/01/04 00:36:06;;;;;;;0.00;0.00;;;8.90;99.90;;;;;;5052552;28;20637;-67
2024/01/04 00:38:31;;;;;;;0.00;0.00;;;8.90;99.90;;;;;;5052900;28;20261;-68
2024/01/04 00:40:57;;;;;;;0.00;0.00;;;8.90;99.90;;;;;;5051960;28;20649;-67
2024/01/04 00:43:22;;;;;;;0.00;0.00;;;8.90;99.90;;;;;;5052788;28;20655;-67
2024/01/04 00:45:48;;;;;;;0.00;0.00;;;8.90;99.90;;;;;;5050803;28;20186;-67
2024/01/04 00:48:13;;;;;;;0.00;0.00;;;8.90;99.90;;;;;;5052095;28;20664;-67
2024/01/04 00:50:39;;;;;;;0.00;0.00;;;8.90;99.90;;;;;;5048044;28;20320;-66
2024/01/04 00:53:04;;;;;;;0.00;0.00;;;8.90;99.90;;;;;;5036881;28;20189;-67
2024/01/04 00:55:30;;;;;;;0.00;0.00;;;8.90;99.90;;;;;;5052772;28;20247;-67
2024/01/04 00:57:55;;;;;;;0.00;0.00;;;8.90;99.90;;;;;;5052529;28;20173;-67
2024/01/04 01:00:21;;;;;;;0.00;0.00;;;8.90;99.90;;;;;;5052164;28;20196;-67
2024/01/04 01:02:46;;;;;;;0.00;0.00;;;8.90;99.90;;;;;;5050776;28;20185;-67
2024/01/04 01:05:12;;;;;;;0.00;0.00;;;9.00;99.90;;;;;;5051174;28;20176;-67
2024/01/04 01:07:37;;;;;;;0.00;0.00;;;9.00;99.90;;;;;;5051754;28;20551;-66
2024/01/04 01:10:03;;;;;;;0.00;0.00;;;9.00;99.90;;;;;;5051909;28;20189;-67
2024/01/04 01:12:28;;;;;;;0.00;0.00;;;8.90;99.90;;;;;;5050373;28;20181;-67
2024/01/04 01:14:54;;;;;;;0.00;0.00;;;9.00;99.90;;;;;;5051429;28;20209;-67
2024/01/04 01:17:19;;;;;;;0.00;0.00;;;9.00;99.90;;;;;;5051989;28;20996;-67
2024/01/04 01:19:45;;;;;;;0.00;0.00;;;9.00;99.90;;;;;;5051603;28;20188;-67
2024/01/04 01:22:10;;;;;;;0.35;0.32;;;9.00;99.90;;;;;;5051840;28;20205;-67
2024/01/04 01:24:36;;;;;;;0.00;0.00;;;9.10;99.90;;;;;;5051688;28;20709;-66
2024/01/04 01:27:02;;;;;;;0.00;0.00;;;9.00;99.90;;;;;;5051744;28;20609;-67
2024/01/04 01:29:27;;;;;;;0.00;0.00;;;9.00;99.90;;;;;;5051063;28;20215;-67
2024/01/04 01:31:52;;;;;;;0.00;0.00;;;9.00;99.90;;;;;;5051260;28;20260;-67
2024/01/04 01:34:18;;;;;;;0.00;0.00;;;9.00;99.90;;;;;;5050986;28;20220;-66
2024/01/04 01:36:44;;;;;;;0.00;0.00;;;9.00;99.90;;;;;;5050935;28;20540;-67
2024/01/04 01:39:09;;;;;;;0.00;0.00;;;9.00;99.90;;;;;;5051441;28;20680;-67
2024/01/04 01:41:35;;;;;;;0.00;0.00;;;9.00;99.90;;;;;;5050450;28;20225;-67
2024/01/04 01:44:00;;;;;;;0.00;0.00;;;9.00;99.90;;;;;;5051272;28;20185;-67
2024/01/04 01:46:26;;;;;;;0.00;0.00;;;9.00;99.90;;;;;;5049875;28;20173;-67
2024/01/04 01:48:52;;;;;;;0.00;0.00;;;9.00;99.90;;;;;;5051452;28;20193;-67
2024/01/04 01:51:17;;;;;;;0.00;0.00;;;9.00;99.90;;;;;;5051145;28;20660;-67
2024/01/04 01:53:43;;;;;;;0.00;0.00;;;9.00;99.90;;;;;;5051419;28;20664;-67
2024/01/04 01:56:09;;;;;;;0.00;0.00;;;9.00;99.90;;;;;;5050605;28;20177;-67
2024/01/04 01:58:36;;;;;;;0.00;0.00;;;9.00;99.90;;;;;;5051184;28;20548;-66
2024/01/04 02:01:02;;;;;;;0.00;0.00;;;9.00;99.90;;;;;;5051140;28;20188;-66
2024/01/04 02:03:27;;;;;;;0.00;0.00;;;9.00;99.90;;;;;;5051226;28;20178;-65
2024/01/04 02:05:53;;;;;;;0.00;0.00;;;9.00;99.90;;;;;;5050708;28;20572;-67
2024/01/04 02:08:19;;;;;;;0.00;0.00;;;9.00;99.90;;;;;;5051385;28;20542;-67
2024/01/04 02:10:44;;;;;;;0.00;0.00;;;9.00;99.90;;;;;;5050977;28;20212;-66
2024/01/04 02:13:10;;;;;;;0.00;0.00;;;8.90;99.90;;;;;;5052163;28;20196;-67
2024/01/04 02:15:35;;;;;;;0.00;0.00;;;8.90;99.90;;;;;;5049978;28;20189;-67
2024/01/04 02:18:01;;;;;;;0.00;0.00;;;8.90;99.90;;;;;;5051145;28;20171;-66
2024/01/04 02:20:27;;;;;;;0.00;0.00;;;8.80;99.90;;;;;;5050992;28;20174;-67
2024/01/04 02:22:52;;;;;;;0.00;0.00;;;8.80;99.90;;;;;;5050858;28;20177;-67
2024/01/04 02:25:18;;;;;;;0.00;0.00;;;8.80;99.90;;;;;;5051268;28;20178;-67
2024/01/04 02:27:44;;;;;;;0.00;0.00;;;8.80;99.90;;;;;;5050679;28;20186;-67
2024/01/04 02:30:13;;;;;;;0.00;0.00;;;8.80;99.90;;;;;;5050640;28;20173;-67
2024/01/04 02:32:38;;;;;;;0.00;0.00;;;8.80;99.90;;;;;;5050817;28;20186;-66
2024/01/04 02:35:04;;;;;;;0.00;0.00;;;8.70;99.90;;;;;;5048997;28;20228;-67
2024/01/04 02:37:30;;;;;;;0.00;0.00;;;8.70;99.90;;;;;;5050332;28;20181;-67
2024/01/04 02:39:56;;;;;;;0.00;0.00;;;8.70;99.90;;;;;;5050645;28;20224;-67
2024/01/04 02:42:21;;;;;;;0.00;0.00;;;8.60;99.90;;;;;;5050696;28;20239;-66
2024/01/04 02:44:47;;;;;;;0.00;0.00;;;8.60;99.90;;;;;;5050608;28;20288;-67
2024/01/04 02:47:12;;;;;;;0.00;0.00;;;8.50;99.90;;;;;;5050679;28;20169;-66
2024/01/04 02:49:38;;;;;;;0.00;0.00;;;8.50;99.90;;;;;;5045972;28;20683;-67
2024/01/04 02:52:05;;;;;;;0.00;0.00;;;8.40;99.90;;;;;;5048803;28;20272;-67
2024/01/04 02:54:30;;;;;;;0.00;0.00;;;8.40;99.90;;;;;;5054390;28;20220;-67
2024/01/04 02:56:56;;;;;;;0.00;0.00;;;8.40;99.90;;;;;;5054511;28;20196;-67
2024/01/04 02:59:21;;;;;;;0.00;0.00;;;8.40;99.90;;;;;;5054675;28;20196;-67
2024/01/04 03:01:48;;;;;;;0.00;0.00;;;8.40;99.90;;;;;;5054077;28;20166;-67
2024/01/04 03:04:15;;;;;;;0.00;0.00;;;8.40;99.90;;;;;;5054477;28;20204;-67
2024/01/04 03:06:40;;;;;;;0.00;0.00;;;8.40;99.90;;;;;;5054252;28;20173;-66
2024/01/04 03:09:06;;;;;;;0.00;0.00;;;8.40;99.90;;;;;;5054588;28;20199;-67
2024/01/04 03:11:32;;;;;;;0.00;0.00;;;8.40;99.90;;;;;;5054237;28;20224;-67
2024/01/04 03:13:57;;;;;;;0.00;0.00;;;8.40;99.90;;;;;;5054312;28;20213;-66
2024/01/04 03:16:23;;;;;;;0.00;0.00;;;8.40;99.90;;;;;;5054062;28;20488;-66
2024/01/04 03:18:48;;;;;;;0.00;0.00;;;8.30;99.90;;;;;;5054052;28;20185;-66
2024/01/04 03:21:14;;;;;;;0.00;0.00;;;8.30;99.90;;;;;;5054415;28;20177;-66
2024/01/04 03:23:40;;;;;;;0.00;0.00;;;8.20;99.90;;;;;;5053834;28;20185;-66
2024/01/04 03:26:05;;;;;;;0.00;0.00;;;8.20;99.90;;;;;;5053912;28;20524;-66
2024/01/04 03:28:31;;;;;;;0.00;0.00;;;8.10;99.90;;;;;;5053872;28;20661;-66
2024/01/04 03:30:56;;;;;;;0.00;0.00;;;8.10;99.90;;;;;;5053877;28;20546;-66
2024/01/04 03:33:22;;;;;;;0.00;0.00;;;8.10;99.90;;;;;;5051942;28;20205;-67
2024/01/04 03:35:47;;;;;;;0.00;0.00;;;8.00;99.90;;;;;;5053462;28;20186;-67
2024/01/04 03:38:13;;;;;;;0.00;0.00;;;8.00;99.90;;;;;;5053816;28;20605;-67
2024/01/04 03:40:38;;;;;;;0.00;0.00;;;8.00;99.90;;;;;;5053313;28;20220;-66
2024/01/04 03:43:04;;;;;;;0.00;0.00;;;8.00;99.90;;;;;;5053232;28;20174;-67
2024/01/04 03:45:33;;;;;;;0.00;0.00;;;8.00;99.90;;;;;;5053434;28;20221;-67
2024/01/04 03:47:59;;;;;;;0.00;0.00;;;8.00;99.90;;;;;;5053211;28;20581;-67
2024/01/04 03:50:25;;;;;;;0.00;0.00;;;8.00;99.90;;;;;;5052917;28;20665;-67
2024/01/04 03:52:50;;;;;;;0.00;0.00;;;8.00;99.90;;;;;;5053289;28;20181;-67
2024/01/04 03:55:16;;;;;;;0.00;0.00;;;8.00;99.90;;;;;;5053352;28;20209;-67
2024/01/04 03:57:45;;;;;;;0.00;0.00;;;8.10;99.90;;;;;;5053319;28;20187;-67
2024/01/04 04:00:11;;;;;;;0.00;0.00;;;8.10;99.90;;;;;;5053287;28;20637;-67
2024/01/04 04:02:37;;;;;;;0.00;0.00;;;8.10;99.90;;;;;;5053079;28;20185;-67
2024/01/04 04:05:03;;;;;;;0.00;0.00;;;8.10;99.90;;;;;;5052701;28;20342;-67
2024/01/04 04:07:28;;;;;;;0.00;0.00;;;8.20;99.90;;;;;;5053229;28;20701;-67
2024/01/04 04:09:55;;;;;;;0.00;0.00;;;8.20;99.90;;;;;;5052843;28;20185;-67
2024/01/04 04:12:22;;;;;;;0.00;0.00;;;8.20;99.90;;;;;;5052911;28;20272;-67
2024/01/04 04:14:48;;;;;;;0.00;0.00;;;8.20;99.90;;;;;;5051581;28;20214;-67
2024/01/04 04:17:17;;;;;;;0.00;0.00;;;8.30;99.90;;;;;;5053224;28;20184;-67
2024/01/04 04:19:43;;;;;;;0.00;0.00;;;8.30;99.90;;;;;;5052812;28;20182;-67
2024/01/04 04:22:08;;;;;;;0.00;0.00;;;8.30;99.90;;;;;;5051722;28;20177;-67
2024/01/04 04:24:34;;;;;;;0.00;0.00;;;8.30;99.90;;;;;;5052523;28;20193;-67
2024/01/04 04:26:59;;;;;;;0.00;0.00;;;8.40;99.90;;;;;;5052722;28;20223;-67
2024/01/04 04:29:25;;;;;;;0.00;0.00;;;8.30;99.90;;;;;;5052806;28;20185;-68
2024/01/04 04:31:50;;;;;;;0.00;0.00;;;8.40;99.90;;;;;;5052555;28;20205;-67
2024/01/04 04:34:16;;;;;;;0.00;0.00;;;8.40;99.90;;;;;;5051307;28;20296;-67
2024/01/04 04:36:41;;;;;;;0.00;0.00;;;8.40;99.90;;;;;;5052354;28;20546;-65
2024/01/04 04:39:08;;;;;;;0.00;0.00;;;8.40;99.90;;;;;;5053177;28;20617;-66
2024/01/04 04:41:34;;;;;;;0.00;0.00;;;8.40;99.90;;;;;;5053017;28;20266;-66
2024/01/04 04:44:00;;;;;;;0.00;0.00;;;8.40;99.90;;;;;;5052785;28;20656;-66
2024/01/04 04:46:25;;;;;;;0.00;0.00;;;8.40;99.90;;;;;;5052754;28;20196;-68
2024/01/04 04:48:55;;;;;;;0.00;0.00;;;8.40;99.90;;;;;;5051435;28;20178;-68
2024/01/04 04:51:22;;;;;;;0.00;0.00;;;8.50;99.90;;;;;;5052921;28;20232;-68
2024/01/04 04:53:48;;;;;;;0.00;0.00;;;8.50;99.90;;;;;;5051617;28;20664;-67
2024/01/04 04:56:13;;;;;;;0.00;0.00;;;8.40;99.90;;;;;;5052417;28;20267;-66
2024/01/04 04:58:39;;;;;;;0.00;0.00;;;8.40;99.90;;;;;;5052276;28;20201;-65
2024/01/04 05:01:04;;;;;;;0.00;0.00;;;8.40;99.90;;;;;;5052443;28;20645;-64
2024/01/04 05:03:30;;;;;;;0.00;0.00;;;8.30;99.90;;;;;;5051382;28;20269;-62
2024/01/04 05:05:55;;;;;;;0.00;0.00;;;8.20;99.90;;;;;;5052621;28;20531;-65
2024/01/04 05:08:22;;;;;;;0.00;0.00;;;8.20;99.90;;;;;;5052789;28;20201;-61
2024/01/04 05:10:48;;;;;;;0.00;0.00;;;8.10;99.90;;;;;;5052047;28;20657;-66
2024/01/04 05:13:13;;;;;;;0.00;0.00;;;8.10;99.90;;;;;;5050723;28;20182;-66
2024/01/04 05:15:39;;;;;;;0.52;0.52;;;8.00;99.90;;;;;;5051557;28;20185;-65
2024/01/04 05:18:04;;;;;;;0.00;0.00;;;8.00;99.90;;;;;;5050230;28;20200;-61
2024/01/04 05:20:30;;;;;;;0.00;0.00;;;8.00;99.90;;;;;;5052167;28;20177;-68
2024/01/04 05:22:57;;;;;;;0.00;0.00;;;8.00;99.90;;;;;;5052313;28;20268;-67
2024/01/04 05:25:22;;;;;;;0.00;0.00;;;8.00;99.90;;;;;;5052453;28;20193;-68
2024/01/04 05:27:48;;;;;;;0.00;0.00;;;8.00;99.90;;;;;;5051471;28;20220;-67
2024/01/04 05:30:14;;;;;;;0.10;0.10;;;7.90;99.90;;;;;;5052319;28;20629;-68
2024/01/04 05:32:39;;;;;;;0.00;0.00;;;7.90;99.90;;;;;;5052259;28;20185;-67
2024/01/04 05:35:05;;;;;;;0.00;0.00;;;7.90;99.90;;;;;;5051988;28;20224;-67
2024/01/04 05:37:30;;;;;;;0.00;0.00;;;7.90;99.90;;;;;;5051047;28;20174;-68
2024/01/04 05:39:56;;;;;;;0.00;0.00;;;7.90;99.90;;;;;;5051934;28;20208;-68
2024/01/04 05:42:21;;;;;;;0.00;0.00;;;7.90;99.90;;;;;;5051974;28;20177;-68
2024/01/04 05:44:47;;;;;;;0.00;0.00;;;7.90;99.90;;;;;;5051775;28;20540;-67
2024/01/04 05:47:12;;;;;;;0.00;0.00;;;7.90;99.90;;;;;;5050700;28;20637;-68
2024/01/04 05:49:38;;;;;;;0.00;0.00;;;7.90;99.90;;;;;;5051157;28;20189;-68
2024/01/04 05:52:04;;;;;;;0.00;0.00;;;7.90;99.90;;;;;;5051647;28;20182;-68
2024/01/04 05:54:30;;;;;;;0.00;0.00;;;8.00;99.90;;;;;;5051536;28;20228;-68
2024/01/04 05:56:55;;;;;;;0.00;0.00;;;8.00;99.90;;;;;;5051591;28;20178;-68
2024/01/04 05:59:24;;;;;;;0.00;0.00;;;8.00;99.90;;;;;;5051811;28;20249;-68
2024/01/04 06:01:50;;;;;;;0.00;0.00;;;8.00;99.90;;;;;;5051755;28;20584;-68
2024/01/04 06:04:16;;;;;;;0.00;0.00;;;8.00;99.90;;;;;;5051584;28;20232;-67
2024/01/04 06:06:42;;;;;;;0.00;0.00;;;8.10;99.90;;;;;;5051652;28;20649;-68
2024/01/04 06:09:08;;;;;;;0.00;0.00;;;8.20;99.90;;;;;;5050698;28;20246;-66
2024/01/04 06:11:33;;;;;;;0.00;0.00;;;8.20;99.90;;;;;;5051080;28;20549;-67
2024/01/04 06:13:59;;;;;;;0.00;0.00;;;8.20;99.90;;;;;;5051232;28;20644;-67
2024/01/04 06:16:24;;;;;;;0.00;0.00;;;8.30;99.90;;;;;;5051393;28;20177;-67
2024/01/04 06:18:51;;;;;;;0.00;0.00;;;8.30;99.90;;;;;;5051599;28;20185;-67
2024/01/04 06:21:16;;;;;;;0.00;0.00;;;8.30;99.90;;;;;;5050952;28;20219;-67
2024/01/04 06:23:42;;;;;;;0.00;0.00;;;8.30;99.90;;;;;;5049051;28;20185;-64
2024/01/04 06:26:08;;;;;;;0.00;0.00;;;8.30;99.90;;;;;;5050817;28;20178;-69
2024/01/04 06:28:34;;;;;;;0.00;0.00;;;8.30;99.90;;;;;;5050545;28;20193;-69
2024/01/04 06:30:59;;;;;;;0.00;0.00;;;8.30;99.90;;;;;;5050941;28;20166;-70
2024/01/04 06:33:25;;;;;;;0.00;0.00;;;8.30;99.90;;;;;;5049441;28;20188;-69
2024/01/04 06:35:50;;;;;;;0.00;0.00;;;8.30;99.90;;;;;;5050344;28;20189;-68
2024/01/04 06:38:16;;;;;;;0.00;0.00;;;8.30;99.90;;;;;;5049559;28;20185;-68
2024/01/04 06:40:41;;;;;;;0.47;0.47;;;8.30;99.90;;;;;;5049436;28;20217;-68
2024/01/04 06:43:10;;;;;;;0.00;0.00;;;8.30;99.90;;;;;;5050677;28;20170;-67
2024/01/04 06:45:36;;;;;;;0.00;0.00;;;8.20;99.90;;;;;;5052501;28;20280;-68
2024/01/04 06:48:02;;;;;;;0.00;0.00;;;8.20;99.90;;;;;;5052467;28;20320;-70
2024/01/04 06:50:27;;;;;;;0.00;0.00;;;8.20;99.90;;;;;;5052423;28;20594;-68
2024/01/04 06:52:53;;;;;;;0.00;0.00;;;8.20;99.90;;;;;;5052498;28;20662;-70
2024/01/04 06:55:19;;;;;;;0.00;0.00;;;8.20;99.90;;;;;;5051911;28;20744;-69
2024/01/04 06:57:44;;;;;;;0.00;0.00;;;8.20;99.90;;;;;;5050354;28;20254;-69
2024/01/04 07:00:10;;;;;;;0.00;0.00;;;8.20;99.90;;;;;;5052531;28;20182;-67
2024/01/04 07:02:37;;;;;;;0.00;0.00;;;8.20;99.90;;;;;;5052104;28;20188;-68
2024/01/04 07:05:06;;;;;;;0.00;0.00;;;8.20;99.90;;;;;;5052065;28;20181;-69
2024/01/04 07:07:32;;;;;;;0.00;0.00;;;8.20;99.90;;;;;;5053798;28;20586;-69
2024/01/04 07:09:58;;;;;;;0.00;0.00;;;8.20;99.90;;;;;;5052685;28;20209;-68
2024/01/04 07:12:26;;;;;;;0.00;0.00;;;8.20;99.90;;;;;;5051049;28;20221;-70
2024/01/04 07:14:52;;;;;;;0.00;0.00;;;8.20;99.90;;;;;;5050777;28;20213;-70
2024/01/04 07:17:18;;;;;;;0.00;0.00;;;8.20;99.90;;;;;;5050413;28;20209;-68
2024/01/04 07:19:44;;;;;;;0.00;0.00;;;8.20;99.90;;;;;;5050574;28;20692;-71
2024/01/04 07:22:10;;;;;;;0.00;0.00;;;8.20;99.90;;;;;;5050823;28;20346;-70
2024/01/04 07:24:36;;;;;;;0.00;0.00;;;8.20;99.90;;;;;;5050472;28;20680;-68
2024/01/04 07:27:02;;;;;;;0.00;0.00;;;8.20;99.90;;;;;;5050775;28;20178;-68
2024/01/04 07:29:28;;;;;;;0.00;0.00;;;8.20;99.90;;;;;;5049211;28;20213;-67
2024/01/04 07:31:54;;;;;;;0.00;0.00;;;8.10;99.90;;;;;;5050666;28;20223;-67
2024/01/04 07:34:21;;;;;;;0.00;0.00;;;8.10;99.90;;;;;;5050151;28;20355;-67
2024/01/04 07:36:46;;;;;;;0.10;0.10;;;8.00;99.90;;;;;;5050183;28;20178;-67
2024/01/04 07:39:12;;;;;;;0.00;0.00;;;8.00;99.90;;;;;;5050612;28;20207;-67
2024/01/04 07:41:37;;;;;;;0.00;0.00;;;8.00;99.90;;;;;;5054168;28;20229;-66
2024/01/04 07:44:03;;;;;;;0.00;0.00;;;8.00;99.90;;;;;;5054366;28;20173;-67
2024/01/04 07:46:28;;;;;;;0.00;0.00;;;7.90;99.90;;;;;;5053112;28;20170;-67
2024/01/04 07:48:54;;;;;;;0.00;0.00;;;7.90;99.90;;;;;;5054359;28;20174;-68
2024/01/04 07:51:19;;;;;;;0.00;0.00;;;7.90;99.90;;;;;;5053895;28;20709;-68
2024/01/04 07:53:45;;;;;;;0.05;0.05;;;8.00;99.90;;;;;;5054055;28;20280;-68
2024/01/04 07:56:11;;;;;;;0.00;0.00;;;8.00;99.90;;;;;;5054152;28;20192;-68
2024/01/04 07:58:36;;;;;;;0.00;0.00;;;8.10;99.90;;;;;;5054030;28;20205;-69
2024/01/04 08:01:02;;;;;;;0.00;0.00;;;8.10;99.90;;;;;;5041638;28;20193;-68
2024/01/04 08:03:28;;;;;;;0.00;0.00;;;8.20;99.90;;;;;;5047534;28;20224;-68
2024/01/04 08:05:54;;;;;;;0.00;0.00;;;8.20;99.90;;;;;;5053992;28;20618;-68
2024/01/04 08:08:20;;;;;;;0.00;0.00;;;8.30;99.90;;;;;;5055498;28;20646;-68
2024/01/04 08:10:45;;;;;;;0.00;0.00;;;8.40;99.90;;;;;;5052694;28;20181;-69
2024/01/04 08:13:11;;;;;;;0.00;0.00;;;8.40;99.90;;;;;;5053720;28;20176;-68
2024/01/04 08:15:37;;;;;;;0.00;0.00;;;8.50;99.90;;;;;;5053894;28;20595;-67
2024/01/04 08:18:02;;;;;;;0.00;0.00;;;8.60;99.90;;;;;;5062139;28;20530;-68
2024/01/04 08:20:28;;;;;;;0.00;0.00;;;8.60;99.90;;;;;;5073565;28;20178;-68
2024/01/04 08:22:55;;;;;;;0.00;0.00;;;8.70;99.90;;;;;;5047646;28;20177;-68
2024/01/04 08:25:20;;;;;;;0.00;0.00;;;8.70;99.90;;;;;;5053476;28;20173;-68
2024/01/04 08:27:46;;;;;;;0.00;0.00;;;8.80;99.90;;;;;;5053588;28;20177;-68
2024/01/04 08:30:13;;;;;;;0.00;0.00;;;8.80;99.90;;;;;;5053641;28;20182;-68
2024/01/04 08:32:39;;;;;;;0.00;0.00;;;8.80;99.90;;;;;;5052278;28;20538;-68
2024/01/04 08:35:04;;;;;;;0.00;0.00;;;8.70;99.90;;;;;;5053343;28;20212;-68
2024/01/04 08:37:30;;;;;;;0.93;0.85;;;8.70;99.90;;;;;;5053386;28;20181;-69
2024/01/04 08:39:55;;;;;;;0.00;0.00;;;8.60;99.90;;;;;;5053203;28;20215;-68
2024/01/04 08:42:21;;;;;;;0.00;0.00;;;8.70;99.90;;;;;;5053306;28;20261;-68
2024/01/04 08:44:47;;;;;;;0.00;0.00;;;8.80;99.90;;;;;;5053286;28;20181;-68
2024/01/04 08:47:12;;;;;;;0.00;0.00;;;8.90;99.90;;;;;;5053331;28;20201;-68
2024/01/04 08:49:38;;;;;;;0.00;0.00;;;9.10;99.90;;;;;;5053220;28;20696;-68
2024/01/04 08:52:04;;;;;;;0.00;0.00;;;9.30;99.90;;;;;;5052977;28;20187;-67
2024/01/04 08:54:30;;;;;;;0.00;0.00;;;9.40;99.90;;;;;;5053146;28;20221;-67
2024/01/04 08:56:56;;;;;;;0.00;0.00;;;9.40;99.90;;;;;;5053017;28;20746;-67
2024/01/04 08:59:21;;;;;;;0.00;0.00;;;9.30;99.90;;;;;;5053105;28;20185;-67
2024/01/04 09:01:47;;;;;;;0.00;0.00;;;9.20;99.90;;;;;;5052952;28;20184;-67
2024/01/04 09:04:13;;;;;;;0.00;0.00;;;9.10;99.90;;;;;;5052982;28;20649;-67
2024/01/04 09:06:39;;;;;;;0.00;0.00;;;9.00;99.90;;;;;;5050774;28;20177;-68
2024/01/04 09:09:07;;;;;;;0.00;0.00;;;9.00;99.90;;;;;;5052802;28;20192;-68
2024/01/04 09:11:40;;;;;;;0.00;0.00;;;9.00;99.90;;;;;;5052792;28;20178;-68
2024/01/04 09:14:07;;;;;;;0.00;0.00;;;9.00;99.90;;;;;;5052446;28;20209;-69
2024/01/04 09:16:34;;;;;;;0.00;0.00;;;9.20;99.90;;;;;;5051167;28;20196;-69
2024/01/04 09:19:00;;;;;;;0.00;0.00;;;9.30;99.90;;;;;;5051177;28;20546;-68
2024/01/04 09:21:26;;;;;;;0.00;0.00;;;9.30;99.90;;;;;;5052522;28;20169;-69
2024/01/04 09:23:52;;;;;;;0.00;0.00;;;9.30;99.90;;;;;;5052388;28;20181;-69
2024/01/04 09:26:18;;;;;;;0.00;0.00;;;9.40;99.90;;;;;;5052410;28;20220;-69
2024/01/04 09:28:44;;;;;;;0.00;0.00;;;9.40;99.90;;;;;;5052283;28;20641;-70
2024/01/04 09:31:09;;;;;;;0.00;0.00;;;9.40;99.90;;;;;;5052206;28;20224;-69
2024/01/04 09:33:35;;;;;;;0.00;0.00;;;9.50;99.90;;;;;;5051795;28;20672;-68
2024/01/04 09:36:00;;;;;;;0.00;0.00;;;9.50;99.90;;;;;;5032049;28;20179;-68
2024/01/04 09:38:27;;;;;;;0.00;0.00;;;9.50;99.90;;;;;;5032241;28;20170;-68
2024/01/04 09:41:01;;;;;;;0.00;0.00;;;9.50;99.90;;;;;;5032348;28;20257;-70
2024/01/04 09:43:30;;;;;;;0.00;0.00;;;9.50;99.90;;;;;;5051802;28;20177;-69
2024/01/04 09:45:59;;;;;;;0.00;0.00;;;9.60;99.90;;;;;;5051429;28;20186;-69
2024/01/04 09:48:30;;;;;;;0.00;0.00;;;9.60;99.90;;;;;;5050793;28;20193;-69
2024/01/04 09:50:55;;;;;;;0.00;0.00;;;9.40;99.90;;;;;;5052011;28;20184;-69
2024/01/04 09:53:21;;;;;;;0.00;0.00;;;9.30;99.90;;;;;;5050731;28;20173;-69
2024/01/04 09:55:47;;;;;;;0.00;0.00;;;9.30;99.90;;;;;;5051593;28;20531;-70
2024/01/04 09:58:13;;;;;;;0.00;0.00;;;9.20;99.90;;;;;;5050629;28;20200;-70
2024/01/04 10:00:38;;;;;;;0.00;0.00;;;9.20;99.90;;;;;;5049992;28;20185;-70
2024/01/04 10:03:05;;;;;;;0.00;0.00;;;9.10;99.90;;;;;;5052383;28;20177;-70
2024/01/04 10:05:33;;;;;;;0.00;0.00;;;9.10;99.90;;;;;;5051818;28;20184;-70
2024/01/04 10:08:25;;;;;;;0.00;0.00;;;9.10;99.90;;;;;;5051614;28;20556;-70
2024/01/04 10:10:55;;;;;;;0.00;0.00;;;9.20;99.90;;;;;;5050715;28;20195;-71
2024/01/04 10:13:21;;;;;;;0.00;0.00;;;9.20;99.90;;;;;;5050317;28;20723;-70
2024/01/04 10:15:49;;;;;;;0.00;0.00;;;9.20;99.90;;;;;;5051670;28;20260;-71
2024/01/04 10:18:17;;;;;;;0.00;0.00;;;9.20;99.90;;;;;;5050908;28;20293;-70
2024/01/04 10:20:59;;;;;;;0.00;0.00;;;9.20;99.90;;;;;;5051423;28;20537;-70
2024/01/04 10:23:25;;;;;;;0.00;0.00;;;9.20;99.90;;;;;;5049961;28;20264;-70
2024/01/04 10:25:51;;;;;;;0.00;0.00;;;9.30;99.90;;;;;;5050022;28;20201;-71
2024/01/04 10:28:19;;;;;;;0.00;0.00;;;9.40;99.90;;;;;;5051358;28;20278;-70
2024/01/04 10:30:55;;;;;;;0.00;0.00;;;9.50;99.90;;;;;;5051301;28;20177;-69
2024/01/04 10:33:20;;;;;;;0.00;0.00;;;9.60;99.90;;;;;;5051322;28;20173;-71
2024/01/04 10:35:46;;;;;;;0.00;0.00;;;9.70;99.90;;;;;;5050088;28;20177;-72
2024/01/04 10:38:11;;;;;;;0.00;0.00;;;9.70;99.90;;;;;;5051162;28;20184;-69
2024/01/04 10:40:37;;;;;;;0.00;0.00;;;9.70;99.90;;;;;;5050969;28;20574;-70
2024/01/04 10:43:03;;;;;;;0.00;0.00;;;9.70;99.90;;;;;;5050399;28;20184;-68
2024/01/04 10:45:31;;;;;;;0.00;0.00;;;9.80;99.90;;;;;;5051336;28;20720;-69
2024/01/04 10:47:57;;;;;;;0.00;0.00;;;9.70;99.90;;;;;;5051077;28;20181;-68
2024/01/04 10:50:24;;;;;;;0.00;0.00;;;9.70;99.90;;;;;;5050852;28;20177;-69
2024/01/04 10:52:54;;;;;;;0.00;0.00;;;9.60;99.90;;;;;;5051108;28;20182;-68
2024/01/04 10:55:21;;;;;;;0.00;0.00;;;9.60;99.90;;;;;;5051050;28;20696;-69
2024/01/04 10:57:48;;;;;;;0.00;0.00;;;9.50;99.90;;;;;;5050957;28;20178;-70
2024/01/04 11:00:16;;;;;;;0.00;0.00;;;9.50;99.90;;;;;;5050479;28;20646;-71
2024/01/04 11:02:43;;;;;;;0.00;0.00;;;9.50;99.90;;;;;;5047875;28;20189;-70
2024/01/04 11:05:10;;;;;;;0.00;0.00;;;9.50;99.90;;;;;;5050899;28;20178;-71
2024/01/04 11:07:39;;;;;;;0.00;0.00;;;9.50;99.90;;;;;;5050401;28;20260;-68
2024/01/04 11:10:06;;;;;;;0.00;0.00;;;9.50;99.90;;;;;;5051020;28;20177;-69
2024/01/04 11:12:32;;;;;;;0.00;0.00;;;9.40;99.90;;;;;;5050730;28;20539;-69
2024/01/04 11:14:59;;;;;;;0.00;0.00;;;9.40;99.90;;;;;;5050744;28;20211;-71
2024/01/04 11:17:58;;;;;;;0.00;0.00;;;9.40;99.90;;;;;;5055076;28;20235;-69
2024/01/04 11:20:59;;;;;;;0.00;0.00;;;9.50;99.90;;;;;;5054883;28;20173;-69
2024/01/04 11:23:50;;;;;;;0.00;0.00;;;9.50;99.90;;;;;;5054278;28;20180;-69
2024/01/04 11:26:18;;;;;;;0.00;0.00;;;9.50;99.90;;;;;;5054750;28;20593;-69
2024/01/04 11:28:45;;;;;;;2.80;1.35;;;9.70;99.90;;;;;;5054656;28;20177;-69
2024/01/04 11:31:12;;;;;;;0.00;0.00;;;9.70;99.90;;;;;;5054640;28;20188;-69
2024/01/04 11:33:41;;;;;;;0.00;0.00;;;9.60;99.90;;;;;;5054380;28;20504;-69
2024/01/04 11:36:08;;;;;;;0.00;0.00;;;9.60;99.90;;;;;;5054761;28;20486;-70
2024/01/04 11:38:34;;;;;;;0.00;0.00;;;9.50;99.90;;;;;;5054324;28;20252;-70
2024/01/04 11:41:01;;;;;;;0.00;0.00;;;9.50;99.90;;;;;;5054026;28;20221;-69
2024/01/04 11:43:37;;;;;;;0.00;0.00;;;9.30;99.90;;;;;;5054282;28;20178;-69
2024/01/04 11:46:15;;;;;;;0.00;0.00;;;9.20;99.90;;;;;;5053457;28;20184;-69
2024/01/04 11:48:56;;;;;;;0.00;0.00;;;9.10;99.90;;;;;;5054070;28;20185;-68
2024/01/04 11:51:40;;;;;;;0.00;0.00;;;8.90;99.90;;;;;;5054263;28;20181;-69
2024/01/04 11:54:08;;;;;;;1.40;1.30;;;8.80;99.90;;;;;;5054072;28;20209;-68
2024/01/04 11:56:34;;;;;;;0.00;0.00;;;8.70;99.90;;;;;;5053656;28;20170;-68
2024/01/04 11:59:10;;;;;;;0.10;0.10;;;8.70;99.90;;;;;;5052838;28;20351;-68
2024/01/04 12:01:38;;;;;;;0.00;0.00;;;8.60;99.90;;;;;;5053937;28;20208;-69
2024/01/04 12:04:11;;;;;;;0.00;0.00;;;8.60;99.90;;;;;;5054038;28;20189;-69
2024/01/04 12:06:40;;;;;;;0.00;0.00;;;8.60;99.90;;;;;;5053937;28;20259;-68
2024/01/04 12:09:06;;;;;;;0.00;0.00;;;8.60;99.90;;;;;;5053878;28;20234;-68
2024/01/04 12:11:45;;;;;;;0.00;0.00;;;8.60;99.90;;;;;;5053713;28;20204;-68
2024/01/04 12:14:12;;;;;;;0.00;0.00;;;8.60;99.90;;;;;;5053835;28;20569;-68
2024/01/04 12:16:39;;;;;;;0.00;0.00;;;8.70;99.90;;;;;;5053526;28;20231;-67
2024/01/04 12:19:04;;;;;;;0.00;0.00;;;8.80;99.90;;;;;;5053898;28;20192;-67
2024/01/04 12:21:30;;;;;;;0.00;0.00;;;9.00;99.90;;;;;;5053777;28;20169;-69
2024/01/04 12:23:56;;;;;;;0.00;0.00;;;9.10;99.90;;;;;;5053753;28;20178;-67
2024/01/04 12:26:24;;;;;;;0.03;0.03;;;9.10;99.90;;;;;;5052556;28;20213;-67
2024/01/04 12:28:53;;;;;;;0.00;0.00;;;9.30;99.90;;;;;;5053530;28;20181;-67
2024/01/04 12:31:29;;;;;;;0.00;0.00;;;9.40;99.90;;;;;;5053454;28;20185;-67
2024/01/04 12:33:58;;;;;;;0.00;0.00;;;9.60;99.90;;;;;;5033581;28;20806;-68
2024/01/04 12:36:24;;;;;;;0.00;0.00;;;9.60;99.90;;;;;;5033500;28;20178;-69
2024/01/04 12:38:52;;;;;;;0.00;0.00;;;9.50;99.90;;;;;;5033517;28;20228;-68
2024/01/04 12:41:25;;;;;;;0.00;0.00;;;9.50;99.90;;;;;;5038048;28;20229;-68
2024/01/04 12:43:52;;;;;;;0.00;0.00;;;9.40;99.90;;;;;;5052224;28;20280;-70
2024/01/04 12:46:21;;;;;;;0.00;0.00;;;9.40;99.90;;;;;;5052977;28;20169;-69
2024/01/04 12:48:48;;;;;;;0.00;0.00;;;9.40;99.90;;;;;;5033350;28;20665;-70
2024/01/04 12:51:16;;;;;;;0.00;0.00;;;9.40;99.90;;;;;;5033331;28;20224;-70
2024/01/04 12:53:44;;;;;;;0.00;0.00;;;9.40;99.90;;;;;;5044029;28;20575;-69
2024/01/04 12:56:15;;;;;;;0.00;0.00;;;9.50;99.90;;;;;;5053009;28;20194;-69